Time;durP1;ratioP1;P1;durP2;ratioP2;P2;SDS_P1;SDS_P2;PMS_P1;PMS_P2;Temp;Humidity;BMP_temperature;BMP_pressure;BME280_temperature;BME280_humidity;BME280_pressure;Samples;Min_cycle;Max_cycle;Signal;HPM_P1;HPM_P2
2021/04/05 00:00:35;;;;;;;40.42;37.83;;;26.40;99.90;;;;;;5093123;28;20028;-59
2021/04/05 00:03:02;;;;;;;;;;;26.50;99.90;;;;;;5093491;28;20064;-59
2021/04/05 00:05:35;;;;;;;36.60;34.38;;;26.80;99.90;;;;;;5092980;28;19904;-59
2021/04/05 00:08:03;;;;;;;37.08;34.58;;;26.90;99.90;;;;;;5094089;28;20049;-59
2021/04/05 00:10:42;;;;;;;37.28;35.17;;;26.90;99.90;;;;;;5097056;28;20059;-59
2021/04/05 00:13:13;;;;;;;36.08;33.97;;;27.00;99.90;;;;;;5097432;28;20020;-59
2021/04/05 00:15:40;;;;;;;38.75;36.22;;;27.20;99.90;;;;;;5097285;28;20107;-59
2021/04/05 00:18:08;;;;;;;40.10;37.63;;;26.80;99.90;;;;;;5097046;28;20099;-58
2021/04/05 00:20:43;;;;;;;40.50;38.25;;;26.60;99.90;;;;;;5096869;28;20450;-59
2021/04/05 00:23:10;;;;;;;41.25;38.90;;;26.10;99.90;;;;;;5097231;28;20081;-59
2021/04/05 00:25:38;;;;;;;41.60;39.13;;;25.90;99.90;;;;;;5096801;28;20028;-58
2021/04/05 00:28:06;;;;;;;42.25;39.65;;;25.80;99.90;;;;;;5096619;28;20050;-58
2021/04/05 00:30:35;;;;;;;43.85;41.28;;;25.90;99.90;;;;;;5096672;28;20028;-58
2021/04/05 00:33:04;;;;;;;49.35;46.28;;;25.70;99.90;;;;;;5096942;28;20411;-59
2021/04/05 00:35:34;;;;;;;49.35;45.97;;;25.20;99.90;;;;;;5096781;28;20376;-58
2021/04/05 00:38:04;;;;;;;;;;;25.00;99.90;;;;;;5096934;28;20024;-58
2021/04/05 00:40:35;;;;;;;47.28;44.58;;;24.70;99.90;;;;;;5096611;28;19915;-59
2021/04/05 00:43:05;;;;;;;53.35;50.00;;;25.00;99.90;;;;;;5096636;28;20016;-58
2021/04/05 00:45:34;;;;;;;50.03;46.97;;;25.30;99.90;;;;;;5095100;28;20038;-59
2021/04/05 00:48:03;;;;;;;48.38;45.30;;;25.80;99.90;;;;;;5096397;28;20028;-59
2021/04/05 00:50:33;;;;;;;44.83;42.08;;;26.00;99.90;;;;;;5096292;28;20043;-58
2021/04/05 00:53:06;;;;;;;44.88;41.97;;;26.00;99.90;;;;;;5096877;28;20036;-59
2021/04/05 00:55:33;;;;;;;45.80;42.50;;;26.50;99.90;;;;;;5096307;28;20024;-59
2021/04/05 00:58:01;;;;;;;41.42;39.00;;;26.30;99.90;;;;;;5096329;28;20425;-59
2021/04/05 01:00:54;;;;;;;40.00;37.25;;;26.60;99.90;;;;;;5096189;28;20021;-58
2021/04/05 01:03:25;;;;;;;35.17;32.90;;;26.80;99.90;;;;;;5095152;28;20036;-59
2021/04/05 01:06:05;;;;;;;35.22;32.80;;;27.10;99.90;;;;;;5096312;28;20040;-59
2021/04/05 01:08:32;;;;;;;35.65;33.42;;;26.80;99.90;;;;;;5096406;28;20028;-60
2021/04/05 01:11:00;;;;;;;32.60;30.45;;;27.30;99.90;;;;;;5095890;28;20024;-58
2021/04/05 01:13:28;;;;;;;31.23;29.48;;;27.30;99.90;;;;;;5095861;28;20027;-59
2021/04/05 01:15:56;;;;;;;30.80;28.75;;;27.30;99.90;;;;;;5095943;28;20056;-59
2021/04/05 01:18:23;;;;;;;33.15;30.88;;;26.70;99.90;;;;;;5095775;28;20425;-59
2021/04/05 01:20:51;;;;;;;26.67;24.63;;;26.80;99.90;;;;;;5094883;28;20031;-59
2021/04/05 01:23:20;;;;;;;24.85;22.75;;;26.70;99.90;;;;;;5095754;28;20048;-60
2021/04/05 01:25:48;;;;;;;22.15;20.25;;;26.90;99.90;;;;;;5095768;28;20046;-59
2021/04/05 01:28:16;;;;;;;20.15;18.77;;;26.70;99.90;;;;;;5095528;28;20496;-59
2021/04/05 01:30:49;;;;;;;19.25;17.75;;;26.80;99.90;;;;;;5095496;28;20028;-59
2021/04/05 01:33:26;;;;;;;19.40;17.92;;;26.60;99.90;;;;;;5095908;28;20345;-60
2021/04/05 01:36:00;;;;;;;17.35;16.27;;;26.50;99.90;;;;;;5095454;28;20027;-61
2021/04/05 01:38:59;;;;;;;17.70;15.90;;;26.80;99.90;;;;;;5095800;28;20070;-60
2021/04/05 01:41:31;;;;;;;18.15;16.75;;;27.20;99.90;;;;;;5050840;28;20074;-59
2021/04/05 01:43:59;;;;;;;17.38;15.98;;;27.60;99.90;;;;;;5095697;28;20020;-59
2021/04/05 01:46:30;;;;;;;16.25;14.95;;;27.80;99.90;;;;;;5095075;28;20045;-60
2021/04/05 01:49:03;;;;;;;14.52;13.43;;;27.70;99.90;;;;;;5093941;28;20028;-59
2021/04/05 01:51:31;;;;;;;13.30;12.15;;;27.70;99.90;;;;;;5093790;28;20137;-59
2021/04/05 01:53:58;;;;;;;12.95;11.88;;;28.10;99.90;;;;;;5095224;28;20021;-60
2021/04/05 01:56:28;;;;;;;13.20;12.20;;;28.00;99.90;;;;;;5093728;28;20024;-59
2021/04/05 01:58:56;;;;;;;12.88;11.88;;;27.30;99.90;;;;;;5095682;28;20024;-60
2021/04/05 02:01:29;;;;;;;15.18;12.82;;;27.50;99.90;;;;;;5095074;28;20021;-58
2021/04/05 02:03:57;;;;;;;14.23;12.73;;;28.00;99.90;;;;;;5095343;28;20099;-59
2021/04/05 02:06:33;;;;;;;13.70;12.48;;;27.80;99.90;;;;;;5095054;28;20024;-59
2021/04/05 02:09:00;;;;;;;14.65;12.13;;;27.70;99.90;;;;;;5093470;28;20412;-59
2021/04/05 02:11:36;;;;;;;14.43;11.63;;;27.00;99.90;;;;;;5094707;28;20039;-59
2021/04/05 02:14:06;;;;;;;14.30;12.32;;;26.90;99.90;;;;;;5094767;28;20028;-60
2021/04/05 02:16:33;;;;;;;14.20;12.63;;;27.10;99.90;;;;;;5094675;28;20024;-59
2021/04/05 02:19:02;;;;;;;13.27;11.98;;;27.10;99.90;;;;;;5093571;28;20020;-59
2021/04/05 02:21:30;;;;;;;12.95;11.85;;;26.80;99.90;;;;;;5094912;28;20035;-59
2021/04/05 02:24:06;;;;;;;15.20;14.00;;;26.70;99.90;;;;;;5094551;28;20089;-65
2021/04/05 02:26:38;;;;;;;16.10;14.57;;;26.60;99.90;;;;;;5095195;28;20454;-60
2021/04/05 02:29:08;;;;;;;16.52;15.13;;;26.40;99.90;;;;;;5094625;28;20100;-60
2021/04/05 02:31:36;;;;;;;15.48;14.20;;;26.10;99.90;;;;;;5094198;28;20058;-62
2021/04/05 02:34:05;;;;;;;15.25;13.77;;;26.20;99.90;;;;;;5094298;28;20020;-59
2021/04/05 02:36:33;;;;;;;16.40;15.00;;;26.40;99.90;;;;;;5094263;28;20020;-59
2021/04/05 02:39:08;;;;;;;18.38;16.77;;;26.40;99.90;;;;;;5094178;28;20092;-60
2021/04/05 02:41:43;;;;;;;17.83;16.17;;;26.40;99.90;;;;;;5094110;28;20071;-58
2021/04/05 02:44:11;;;;;;;16.95;15.55;;;26.30;99.90;;;;;;5094515;28;20028;-59
2021/04/05 02:46:41;;;;;;;17.02;15.65;;;26.10;99.90;;;;;;5092924;28;20027;-60
2021/04/05 02:49:13;;;;;;;16.10;14.88;;;26.20;99.90;;;;;;5094177;28;20024;-59
2021/04/05 02:51:48;;;;;;;16.38;15.10;;;26.30;99.90;;;;;;5094047;28;20023;-59
2021/04/05 02:54:19;;;;;;;15.45;14.23;;;26.80;99.90;;;;;;5094108;28;20043;-59
2021/04/05 02:56:47;;;;;;;16.42;14.88;;;27.30;99.90;;;;;;5094101;28;20478;-60
2021/04/05 02:59:20;;;;;;;15.25;14.10;;;27.30;99.90;;;;;;5094030;28;20016;-60
2021/04/05 03:01:48;;;;;;;16.13;14.85;;;26.90;99.90;;;;;;5094096;28;20031;-59
2021/04/05 03:04:16;;;;;;;15.95;14.48;;;26.70;99.90;;;;;;5093949;28;20362;-62
2021/04/05 03:06:44;;;;;;;14.95;13.88;;;26.40;99.90;;;;;;5093730;28;20035;-60
2021/04/05 03:09:11;;;;;;;14.55;13.20;;;26.30;99.90;;;;;;5093822;28;20055;-61
2021/04/05 03:11:43;;;;;;;14.32;13.20;;;26.70;99.90;;;;;;5093602;28;20417;-61
2021/04/05 03:14:12;;;;;;;15.23;13.20;;;26.90;99.90;;;;;;5092421;28;20476;-62
2021/04/05 03:16:42;;;;;;;13.40;12.25;;;26.90;99.90;;;;;;5093702;28;20065;-63
2021/04/05 03:19:11;;;;;;;13.45;12.30;;;27.00;99.90;;;;;;5093675;28;20020;-62
2021/04/05 03:21:42;;;;;;;12.40;11.30;;;27.30;99.90;;;;;;5093622;28;20032;-63
2021/04/05 03:24:12;;;;;;;12.48;11.27;;;27.60;99.90;;;;;;5093550;28;20069;-62
2021/04/05 03:26:40;;;;;;;15.23;11.57;;;27.90;99.90;;;;;;5093436;28;20028;-64
2021/04/05 03:29:11;;;;;;;12.93;11.80;;;28.00;99.90;;;;;;5093128;28;20038;-63
2021/04/05 03:31:44;;;;;;;12.63;11.60;;;27.90;99.90;;;;;;5093539;28;20024;-65
2021/04/05 03:34:21;;;;;;;13.00;11.73;;;27.50;99.90;;;;;;5092073;28;20032;-65
2021/04/05 03:37:09;;;;;;;13.70;12.50;;;27.50;99.90;;;;;;5093782;28;20418;-65
2021/04/05 03:39:37;;;;;;;11.80;10.90;;;28.20;99.90;;;;;;5091841;28;20089;-65
2021/04/05 03:42:14;;;;;;;13.00;11.68;;;28.20;99.90;;;;;;5093213;28;20104;-65
2021/04/05 03:44:59;;;;;;;12.93;11.77;;;28.30;99.90;;;;;;5093283;28;20023;-64
2021/04/05 03:47:33;;;;;;;13.55;12.35;;;28.30;99.90;;;;;;5093251;28;20424;-65
2021/04/05 03:50:26;;;;;;;12.65;11.40;;;27.90;99.90;;;;;;5093422;28;20027;-64
2021/04/05 03:53:22;;;;;;;11.90;10.95;;;28.00;99.90;;;;;;5093305;28;20016;-64
2021/04/05 03:55:59;;;;;;;12.13;11.20;;;27.60;99.90;;;;;;5093012;28;20024;-65
2021/04/05 03:58:31;;;;;;;15.75;14.35;;;28.10;99.90;;;;;;5093155;28;20398;-65
2021/04/05 04:01:05;;;;;;;26.77;24.38;;;27.60;99.90;;;;;;5091699;28;20020;-65
2021/04/05 04:06:39;;;;;;;22.35;20.30;;;28.30;99.90;;;;;;5089995;28;20039;-64
2021/04/05 04:09:07;;;;;;;29.58;27.08;;;28.60;99.90;;;;;;5093177;28;20107;-66
2021/04/05 04:11:38;;;;;;;32.70;29.90;;;28.50;99.90;;;;;;5093136;28;20067;-65
2021/04/05 04:14:07;;;;;;;23.92;22.00;;;27.60;99.90;;;;;;5092383;28;20035;-65
2021/04/05 04:16:35;;;;;;;29.42;26.52;;;27.70;99.90;;;;;;5093134;28;20021;-65
2021/04/05 04:19:05;;;;;;;46.85;42.60;;;27.60;99.90;;;;;;5093046;28;20021;-66
2021/04/05 04:21:34;;;;;;;39.55;36.15;;;28.10;99.90;;;;;;5093082;28;20504;-63
2021/04/05 04:24:02;;;;;;;18.60;16.13;;;28.20;99.90;;;;;;5093036;28;20047;-63
2021/04/05 04:26:34;;;;;;;25.98;23.40;;;28.10;99.90;;;;;;5092998;28;20032;-62
2021/04/05 04:29:02;;;;;;;15.27;13.82;;;28.50;99.90;;;;;;5092848;28;20055;-65
2021/04/05 04:31:29;;;;;;;15.93;14.52;;;28.40;99.90;;;;;;5091600;28;20366;-64
2021/04/05 04:33:57;;;;;;;17.63;15.93;;;27.90;99.90;;;;;;5092966;28;20358;-64
2021/04/05 04:36:25;;;;;;;12.57;11.40;;;27.70;99.90;;;;;;5092815;28;20031;-68
2021/04/05 04:38:59;;;;;;;17.77;16.35;;;27.40;99.90;;;;;;5092651;28;20066;-63
2021/04/05 04:41:28;;;;;;;15.35;13.98;;;27.30;99.90;;;;;;5092951;28;20479;-63
2021/04/05 04:43:56;;;;;;;17.10;15.60;;;27.50;99.90;;;;;;5092703;28;20024;-64
2021/04/05 04:46:24;;;;;;;14.40;13.05;;;27.60;99.90;;;;;;5091332;28;20065;-64
2021/04/05 04:49:01;;;;;;;14.57;13.27;;;27.60;99.90;;;;;;5092678;28;20035;-63
2021/04/05 04:51:29;;;;;;;14.18;13.07;;;27.80;99.90;;;;;;5092430;28;20035;-63
2021/04/05 04:54:02;;;;;;;11.70;10.73;;;27.60;99.90;;;;;;5092739;28;20373;-63
2021/04/05 04:56:30;;;;;;;11.90;10.90;;;27.60;99.90;;;;;;5096077;28;20377;-63
2021/04/05 04:59:06;;;;;;;12.90;11.63;;;27.90;99.90;;;;;;5096307;28;20021;-64
2021/04/05 05:01:37;;;;;;;12.40;11.38;;;27.80;99.90;;;;;;5096130;28;20023;-64
2021/04/05 05:04:12;;;;;;;11.48;10.38;;;28.30;99.90;;;;;;5096163;28;20030;-63
2021/04/05 05:06:41;;;;;;;13.73;12.30;;;28.20;99.90;;;;;;5096010;28;20032;-62
2021/04/05 05:09:09;;;;;;;13.70;12.38;;;27.80;99.90;;;;;;5096059;28;20020;-63
2021/04/05 05:11:37;;;;;;;12.23;11.32;;;27.30;99.90;;;;;;5095933;28;20139;-60
2021/04/05 05:14:05;;;;;;;13.77;12.52;;;27.10;99.90;;;;;;5095950;28;20082;-62
2021/04/05 05:16:33;;;;;;;13.82;12.45;;;27.20;99.90;;;;;;5095696;28;20496;-62
2021/04/05 05:19:01;;;;;;;27.27;17.30;;;27.20;99.90;;;;;;5095732;28;20455;-62
2021/04/05 05:21:49;;;;;;;11.98;11.10;;;27.30;99.90;;;;;;5095761;28;20016;-62
2021/04/05 05:24:20;;;;;;;12.43;11.48;;;27.30;99.90;;;;;;5095735;28;20028;-62
2021/04/05 05:26:50;;;;;;;12.68;11.82;;;27.20;99.90;;;;;;5095848;28;20483;-62
2021/04/05 05:29:18;;;;;;;15.80;14.23;;;27.10;99.90;;;;;;5095505;28;20107;-62
2021/04/05 05:31:46;;;;;;;14.07;13.15;;;26.90;99.90;;;;;;5095306;28;20032;-63
2021/04/05 05:34:19;;;;;;;46.45;24.42;;;26.50;99.90;;;;;;5095623;28;20020;-62
2021/04/05 05:36:47;;;;;;;18.58;16.98;;;26.30;99.90;;;;;;5095807;28;20016;-61
2021/04/05 05:39:17;;;;;;;63.83;32.78;;;26.50;99.90;;;;;;5095178;28;20032;-62
2021/04/05 05:42:00;;;;;;;20.35;16.85;;;26.60;99.90;;;;;;5095493;28;20031;-61
2021/04/05 05:44:45;;;;;;;14.88;13.77;;;26.50;99.90;;;;;;5095621;28;20024;-62
2021/04/05 05:47:30;;;;;;;15.90;14.77;;;26.40;99.90;;;;;;5095538;28;20024;-63
2021/04/05 05:50:31;;;;;;;17.52;16.35;;;26.10;99.90;;;;;;5095170;28;20027;-61
2021/04/05 05:53:19;;;;;;;17.80;16.35;;;25.70;99.90;;;;;;5095101;28;20488;-62
2021/04/05 05:56:29;;;;;;;18.48;16.95;;;25.70;99.90;;;;;;5095555;28;20051;-62
2021/04/05 05:59:14;;;;;;;17.90;16.65;;;25.70;99.90;;;;;;5094929;28;20368;-62
2021/04/05 06:02:13;;;;;;;18.08;17.05;;;25.60;99.90;;;;;;5095328;28;20020;-63
2021/04/05 06:05:02;;;;;;;16.88;15.90;;;25.40;99.90;;;;;;5094979;28;20044;-64
2021/04/05 06:07:33;;;;;;;16.80;15.60;;;25.50;99.90;;;;;;5093074;28;20392;-62
2021/04/05 06:10:36;;;;;;;16.77;15.90;;;25.60;99.90;;;;;;5095266;28;20027;-62
2021/04/05 06:13:31;;;;;;;17.35;16.35;;;25.40;99.90;;;;;;5065134;28;20027;-61
2021/04/05 06:16:14;;;;;;;17.05;16.05;;;25.50;99.90;;;;;;5094287;28;20020;-61
2021/04/05 06:18:41;;;;;;;19.38;18.05;;;25.50;99.90;;;;;;5094596;28;20384;-61
2021/04/05 06:21:40;;;;;;;18.70;17.40;;;25.50;99.90;;;;;;5095032;28;20035;-62
2021/04/05 06:24:27;;;;;;;19.38;18.10;;;25.50;99.90;;;;;;5094603;28;20073;-61
2021/04/05 06:27:29;;;;;;;19.05;17.80;;;25.40;99.90;;;;;;5094509;28;20475;-61
2021/04/05 06:30:14;;;;;;;18.17;17.00;;;25.30;99.90;;;;;;5070805;28;20036;-62
2021/04/05 06:33:08;;;;;;;18.50;17.27;;;25.30;99.90;;;;;;5094762;28;20081;-61
2021/04/05 06:35:53;;;;;;;19.23;17.92;;;25.10;99.90;;;;;;5093146;28;20028;-62
2021/04/05 06:39:04;;;;;;;19.02;18.02;;;24.90;99.90;;;;;;5094791;28;20043;-69
2021/04/05 06:41:36;;;;;;;19.35;18.35;;;25.00;99.90;;;;;;5030832;28;20044;-69
2021/04/05 06:44:28;;;;;;;19.42;18.30;;;25.00;99.90;;;;;;5094287;28;20385;-70
2021/04/05 06:47:22;;;;;;;18.92;17.90;;;25.00;99.90;;;;;;5094436;28;20377;-70
2021/04/05 06:50:20;;;;;;;19.25;18.10;;;24.80;99.90;;;;;;5094623;28;20024;-70
2021/04/05 06:53:31;;;;;;;19.95;18.73;;;24.60;99.90;;;;;;5094127;28;20433;-69
2021/04/05 06:56:02;;;;;;;18.90;17.50;;;24.50;99.90;;;;;;5062905;28;20039;-69
2021/04/05 06:59:09;;;;;;;18.10;16.95;;;24.50;99.90;;;;;;5094347;28;20107;-69
2021/04/05 07:02:16;;;;;;;17.77;16.63;;;24.50;99.90;;;;;;5081516;28;20066;-69
2021/04/05 07:04:49;;;;;;;19.33;17.92;;;24.50;99.90;;;;;;5094151;28;20024;-68
2021/04/05 07:07:30;;;;;;;17.48;16.58;;;24.30;99.90;;;;;;5094194;28;20472;-70
2021/04/05 07:10:04;;;;;;;17.33;16.23;;;24.20;99.90;;;;;;5094355;28;20407;-70
2021/04/05 07:12:43;;;;;;;18.10;17.00;;;24.20;99.90;;;;;;5093725;28;20016;-70
2021/04/05 07:15:24;;;;;;;17.90;16.77;;;24.00;99.90;;;;;;5093898;28;20024;-69
2021/04/05 07:18:28;;;;;;;17.95;16.73;;;23.90;99.90;;;;;;5093019;28;20028;-70
2021/04/05 07:21:16;;;;;;;17.63;16.60;;;23.90;99.90;;;;;;5094193;28;20052;-70
2021/04/05 07:24:17;;;;;;;19.15;18.02;;;23.70;99.90;;;;;;5094163;28;20099;-70
2021/04/05 07:26:50;;;;;;;;;;;23.70;99.90;;;;;;5093879;28;20436;-69
2021/04/05 07:29:40;;;;;;;19.90;18.70;;;23.60;99.90;;;;;;5093263;28;19905;-69
2021/04/05 07:32:15;;;;;;;23.48;21.77;;;23.60;99.90;;;;;;5093046;28;20032;-69
2021/04/05 07:34:51;;;;;;;26.95;25.20;;;23.50;99.90;;;;;;5093497;28;20034;-69
2021/04/05 07:37:21;;;;;;;33.08;30.75;;;23.30;99.90;;;;;;5093886;28;20026;-69
2021/04/05 07:40:33;;;;;;;31.05;28.63;;;23.20;99.90;;;;;;5093466;28;20039;-69
2021/04/05 07:43:05;;;;;;;33.85;31.52;;;23.10;99.90;;;;;;5093527;28;20380;-70
2021/04/05 07:45:53;;;;;;;33.85;31.98;;;23.00;99.90;;;;;;5093798;28;20522;-70
2021/04/05 07:48:27;;;;;;;35.00;33.13;;;23.00;99.90;;;;;;5093252;28;20385;-70
2021/04/05 07:50:57;;;;;;;35.03;32.92;;;22.90;99.90;;;;;;5093025;28;20020;-70
2021/04/05 07:54:02;;;;;;;36.67;34.63;;;22.90;99.90;;;;;;5093112;28;20039;-70
2021/04/05 07:56:55;;;;;;;39.28;36.85;;;22.80;99.90;;;;;;5093496;28;20103;-70
2021/04/05 07:59:47;;;;;;;40.78;38.40;;;22.70;99.90;;;;;;5093218;28;20013;-69
2021/04/05 08:02:20;;;;;;;43.25;40.90;;;22.60;99.90;;;;;;5093439;28;20051;-70
2021/04/05 08:05:05;;;;;;;44.35;41.75;;;22.60;99.90;;;;;;5093515;28;20032;-69
2021/04/05 08:08:14;;;;;;;46.22;43.53;;;22.50;99.90;;;;;;5093618;28;20023;-69
2021/04/05 08:10:53;;;;;;;48.42;45.65;;;22.40;99.90;;;;;;5092773;28;20024;-70
2021/04/05 08:13:53;;;;;;;47.45;44.85;;;22.30;99.90;;;;;;5093715;28;20095;-70
2021/04/05 08:16:35;;;;;;;50.20;47.05;;;22.30;99.90;;;;;;5093341;28;20035;-69
2021/04/05 08:19:21;;;;;;;32.08;29.40;;;22.20;99.90;;;;;;5091672;28;20047;-70
2021/04/05 08:22:04;;;;;;;31.95;29.50;;;22.10;99.90;;;;;;5091592;28;20020;-70
2021/04/05 08:25:01;;;;;;;46.92;43.97;;;22.10;99.90;;;;;;5093095;28;20372;-69
2021/04/05 08:27:50;;;;;;;51.00;48.10;;;22.00;99.90;;;;;;5093124;28;20062;-69
2021/04/05 08:30:47;;;;;;;33.75;31.17;;;22.00;99.90;;;;;;5095657;28;20124;-70
2021/04/05 08:33:35;;;;;;;51.20;47.85;;;22.00;99.90;;;;;;5097209;28;20169;-69
2021/04/05 08:36:14;;;;;;;56.13;52.72;;;22.00;99.90;;;;;;5045393;28;20378;-69
2021/04/05 08:39:06;;;;;;;55.63;52.15;;;22.00;99.90;;;;;;5096363;28;20013;-68
2021/04/05 08:42:06;;;;;;;56.58;52.78;;;21.90;99.90;;;;;;5096411;28;20451;-69
2021/04/05 08:44:37;;;;;;;55.58;52.28;;;22.00;99.90;;;;;;5062523;28;20047;-70
2021/04/05 08:47:08;;;;;;;53.75;50.50;;;21.90;99.90;;;;;;5097040;28;20027;-69
2021/04/05 08:49:37;;;;;;;54.72;51.22;;;21.90;99.90;;;;;;5096421;28;20020;-68
2021/04/05 08:52:09;;;;;;;53.65;50.35;;;21.80;99.90;;;;;;5096291;28;20529;-69
2021/04/05 08:54:39;;;;;;;55.58;52.17;;;21.80;99.90;;;;;;5096537;28;20074;-69
2021/04/05 08:57:17;;;;;;;56.15;52.50;;;21.70;99.90;;;;;;5096496;28;20070;-69
2021/04/05 08:59:56;;;;;;;58.40;54.70;;;21.60;99.90;;;;;;5096301;28;20384;-69
2021/04/05 09:03:09;;;;;;;57.20;53.45;;;21.60;99.90;;;;;;5096798;28;20048;-69
2021/04/05 09:05:43;;;;;;;57.47;53.88;;;21.50;99.90;;;;;;5093168;28;20202;-69
2021/04/05 09:08:13;;;;;;;55.42;51.25;;;21.50;99.90;;;;;;5096323;28;20016;-69
2021/04/05 09:11:02;;;;;;;54.17;50.70;;;21.50;99.90;;;;;;5096181;28;20031;-70
2021/04/05 09:13:45;;;;;;;55.13;51.38;;;21.50;99.90;;;;;;5094685;28;20028;-68
2021/04/05 09:16:15;;;;;;;57.58;53.63;;;21.50;99.90;;;;;;5094664;28;20027;-68
2021/04/05 09:19:33;;;;;;;59.72;55.28;;;21.40;99.90;;;;;;5096312;28;20069;-68
2021/04/05 09:22:34;;;;;;;61.03;57.33;;;21.40;99.90;;;;;;5061680;28;20490;-68
2021/04/05 09:25:10;;;;;;;;;;;21.30;99.90;;;;;;5096306;28;20087;-67
2021/04/05 09:27:43;;;;;;;63.97;60.17;;;21.30;99.90;;;;;;5094208;28;20360;-67
2021/04/05 09:30:43;;;;;;;63.47;59.58;;;21.30;99.90;;;;;;5096204;28;20494;-68
2021/04/05 09:33:47;;;;;;;63.75;59.53;;;21.40;99.90;;;;;;5095454;28;20020;-68
2021/04/05 09:36:30;;;;;;;40.13;36.63;;;21.40;99.90;;;;;;5095529;28;20031;-68
2021/04/05 09:39:31;;;;;;;39.03;35.97;;;21.40;99.90;;;;;;5095247;28;20024;-68
2021/04/05 09:42:27;;;;;;;37.55;34.47;;;21.40;99.90;;;;;;5094906;28;20103;-68
2021/04/05 09:45:19;;;;;;;48.97;44.08;;;21.30;99.90;;;;;;5064552;28;20114;-67
2021/04/05 09:48:01;;;;;;;64.95;60.63;;;21.30;99.90;;;;;;5095171;28;20036;-67
2021/04/05 09:50:55;;;;;;;67.15;62.83;;;21.30;99.90;;;;;;5095089;28;20428;-68
2021/04/05 09:53:45;;;;;;;68.63;64.40;;;21.20;99.90;;;;;;5095163;28;20024;-68
2021/04/05 09:56:20;;;;;;;64.75;60.63;;;21.20;99.90;;;;;;5095385;28;20381;-67
2021/04/05 09:59:07;;;;;;;63.90;59.78;;;21.20;99.90;;;;;;5094952;28;20028;-67
2021/04/05 10:01:37;;;;;;;65.85;61.22;;;21.10;99.90;;;;;;5094951;28;20481;-67
2021/04/05 10:04:11;;;;;;;67.35;62.88;;;21.00;99.90;;;;;;5094961;28;20032;-67
2021/04/05 10:06:41;;;;;;;68.13;63.25;;;21.00;99.90;;;;;;5093627;28;20038;-67
2021/04/05 10:09:10;;;;;;;69.23;64.40;;;20.90;99.90;;;;;;5094949;28;20024;-68
2021/04/05 10:11:43;;;;;;;66.55;62.15;;;20.90;99.90;;;;;;5094912;28;20032;-68
2021/04/05 10:14:15;;;;;;;67.78;63.03;;;20.80;99.90;;;;;;5094864;28;20137;-67
2021/04/05 10:16:52;;;;;;;65.82;61.55;;;20.80;99.90;;;;;;5094793;28;20058;-67
2021/04/05 10:19:36;;;;;;;66.03;61.60;;;20.80;99.90;;;;;;5094813;28;20031;-67
2021/04/05 10:22:15;;;;;;;66.28;61.95;;;20.80;99.90;;;;;;5093802;28;20031;-68
2021/04/05 10:24:45;;;;;;;66.65;62.22;;;20.80;99.90;;;;;;5093525;28;20070;-68
2021/04/05 10:27:18;;;;;;;37.33;34.00;;;20.80;99.90;;;;;;5094677;28;20050;-68
2021/04/05 10:29:49;;;;;;;36.28;33.28;;;20.80;99.90;;;;;;5094440;28;20036;-68
2021/04/05 10:32:21;;;;;;;69.13;64.50;;;20.80;99.90;;;;;;5094429;28;20054;-68
2021/04/05 10:35:02;;;;;;;68.90;64.57;;;20.80;99.90;;;;;;5094390;28;20020;-67
2021/04/05 10:37:35;;;;;;;68.05;63.67;;;20.80;99.90;;;;;;5094463;28;20020;-67
2021/04/05 10:40:03;;;;;;;66.45;62.15;;;20.80;99.90;;;;;;5094104;28;20104;-68
2021/04/05 10:42:36;;;;;;;68.45;63.78;;;20.90;99.90;;;;;;5094288;28;20027;-67
2021/04/05 10:45:10;;;;;;;67.55;63.17;;;20.80;99.90;;;;;;5094222;28;20488;-68
2021/04/05 10:47:52;;;;;;;69.60;65.05;;;20.80;99.90;;;;;;5094600;28;20095;-67
2021/04/05 10:50:25;;;;;;;69.20;64.68;;;20.80;99.90;;;;;;5094009;28;20028;-68
2021/04/05 10:52:53;;;;;;;69.95;65.57;;;20.80;99.90;;;;;;5094069;28;20024;-68
2021/04/05 10:55:23;;;;;;;67.88;63.60;;;20.80;99.90;;;;;;5094070;28;20477;-68
2021/04/05 10:58:01;;;;;;;69.70;65.20;;;20.80;99.90;;;;;;5093932;28;20020;-67
2021/04/05 11:00:41;;;;;;;70.75;66.55;;;20.80;99.90;;;;;;5094032;28;20052;-67
2021/04/05 11:03:20;;;;;;;70.68;66.20;;;20.70;99.90;;;;;;5093962;28;20063;-68
2021/04/05 11:05:51;;;;;;;69.95;65.75;;;20.70;99.90;;;;;;5093760;28;20027;-68
2021/04/05 11:08:22;;;;;;;;;;;20.70;99.90;;;;;;5092141;28;20035;-68
2021/04/05 11:10:49;;;;;;;;;;;20.70;99.90;;;;;;5094153;28;20000;-67
2021/04/05 11:13:22;;;;;;;70.20;65.78;;;20.70;99.90;;;;;;5093606;28;19907;-67
2021/04/05 11:15:50;;;;;;;73.82;69.53;;;20.70;99.90;;;;;;5093671;28;20382;-68
2021/04/05 11:18:21;;;;;;;74.55;69.78;;;20.70;99.90;;;;;;5093615;28;20077;-67
2021/04/05 11:20:51;;;;;;;70.85;66.65;;;20.70;99.90;;;;;;5093925;28;20020;-68
2021/04/05 11:23:22;;;;;;;70.97;66.57;;;20.70;99.90;;;;;;5093363;28;20426;-68
2021/04/05 11:25:59;;;;;;;69.45;65.22;;;20.70;99.90;;;;;;5093586;28;20146;-68
2021/04/05 11:28:27;;;;;;;69.35;65.13;;;20.70;99.90;;;;;;5093567;28;20024;-68
2021/04/05 11:31:16;;;;;;;71.32;67.10;;;20.60;99.90;;;;;;5093328;28;20025;-67
2021/04/05 11:34:01;;;;;;;76.25;71.72;;;20.60;99.90;;;;;;5093749;28;20024;-68
2021/04/05 11:36:42;;;;;;;75.75;71.13;;;20.50;99.90;;;;;;5093658;28;20022;-69
2021/04/05 11:39:16;;;;;;;78.70;73.47;;;20.40;99.90;;;;;;5093589;28;20036;-68
2021/04/05 11:41:54;;;;;;;79.65;74.72;;;20.40;99.90;;;;;;5093617;28;20437;-68
2021/04/05 11:44:44;;;;;;;79.63;74.83;;;20.40;99.90;;;;;;5093567;28;20056;-69
2021/04/05 11:47:13;;;;;;;76.57;71.85;;;20.30;99.90;;;;;;5092923;28;20787;-69
2021/04/05 11:49:40;;;;;;;74.28;69.47;;;20.20;99.90;;;;;;5093042;28;20033;-68
2021/04/05 11:52:53;;;;;;;74.30;69.22;;;20.10;99.90;;;;;;5092966;28;20055;-68
2021/04/05 11:55:32;;;;;;;77.80;72.57;;;20.10;99.90;;;;;;5011260;28;20026;-68
2021/04/05 11:58:26;;;;;;;78.93;73.75;;;20.10;99.90;;;;;;5090182;28;20439;-68
2021/04/05 12:01:02;;;;;;;76.78;72.10;;;20.00;99.90;;;;;;5093145;28;20335;-67
2021/04/05 12:03:45;;;;;;;77.47;72.82;;;20.00;99.90;;;;;;5093687;28;20028;-67
2021/04/05 12:06:37;;;;;;;79.63;74.63;;;20.00;99.90;;;;;;5097398;28;20043;-67
2021/04/05 12:09:30;;;;;;;78.35;73.45;;;19.90;99.90;;;;;;5097272;28;20048;-68
2021/04/05 12:12:03;;;;;;;83.32;78.28;;;19.90;99.90;;;;;;5086462;28;20032;-68
2021/04/05 12:14:32;;;;;;;81.35;76.38;;;19.90;99.90;;;;;;5095783;28;20039;-69
2021/04/05 12:17:02;;;;;;;79.63;74.75;;;19.90;99.90;;;;;;5097324;28;20020;-68
2021/04/05 12:19:37;;;;;;;84.72;79.82;;;19.90;99.90;;;;;;5097364;28;20066;-69
2021/04/05 12:22:07;;;;;;;82.97;77.90;;;19.90;99.90;;;;;;5097312;28;20059;-69
2021/04/05 12:24:51;;;;;;;82.47;77.32;;;19.90;99.90;;;;;;5096862;28;20447;-68
2021/04/05 12:27:19;;;;;;;84.40;79.20;;;19.90;99.90;;;;;;5096961;28;20020;-69
2021/04/05 12:29:51;;;;;;;83.05;78.05;;;19.90;99.90;;;;;;5096808;28;20024;-69
2021/04/05 12:32:19;;;;;;;84.68;79.15;;;19.90;99.90;;;;;;5097134;28;20376;-69
2021/04/05 12:34:54;;;;;;;86.57;81.57;;;19.90;99.90;;;;;;5096759;28;20016;-69
2021/04/05 12:37:23;;;;;;;85.28;80.28;;;19.80;99.90;;;;;;5096709;28;20430;-68
2021/04/05 12:39:53;;;;;;;84.03;79.18;;;19.90;99.90;;;;;;5096540;28;20039;-69
2021/04/05 12:42:22;;;;;;;85.30;80.15;;;19.80;99.90;;;;;;5095271;28;20485;-68
2021/04/05 12:45:00;;;;;;;83.85;78.85;;;19.80;99.90;;;;;;5096552;28;20481;-68
2021/04/05 12:47:40;;;;;;;84.65;79.45;;;19.80;99.90;;;;;;5095156;28;20024;-68
2021/04/05 12:50:15;;;;;;;87.97;82.80;;;19.70;99.90;;;;;;5096930;28;20031;-69
2021/04/05 12:52:44;;;;;;;87.30;81.72;;;19.70;99.90;;;;;;5095347;28;20339;-68
2021/04/05 12:55:17;;;;;;;86.93;82.03;;;19.70;99.90;;;;;;5096412;28;20029;-69
2021/04/05 12:57:45;;;;;;;86.97;81.55;;;19.70;99.90;;;;;;5096181;28;20052;-69
2021/04/05 13:00:21;;;;;;;87.18;81.78;;;19.60;99.90;;;;;;5096233;28;20558;-70
2021/04/05 13:03:19;;;;;;;83.97;78.68;;;19.60;99.90;;;;;;5096071;28;20485;-69
2021/04/05 13:06:14;;;;;;;84.78;79.70;;;19.60;99.90;;;;;;5095943;28;20395;-69
2021/04/05 13:08:53;;;;;;;87.13;81.93;;;19.60;99.90;;;;;;5094739;28;20465;-68
2021/04/05 13:11:26;;;;;;;91.25;86.13;;;19.50;99.90;;;;;;5095914;28;20028;-68
2021/04/05 13:14:17;;;;;;;90.55;85.35;;;19.50;99.90;;;;;;5095945;28;20020;-69
2021/04/05 13:17:02;;;;;;;92.53;86.95;;;19.50;99.90;;;;;;5095431;28;20376;-68
2021/04/05 13:19:44;;;;;;;91.78;86.00;;;19.60;99.90;;;;;;5095787;28;20030;-68
2021/04/05 13:22:16;;;;;;;93.32;87.80;;;19.70;99.90;;;;;;5096147;28;20028;-68